Terminal Aerodrome Forecast
Issued by NWS Sioux Falls, SD

Home | Current Version | Previous Version | Text Only | Print | Product List | Glossary Off
Versions: 1 2 3 4 5 6 7 8 9 10 11 12 13 14

000
FTUS43 KFSD 160531
TAFFSD
TAF
KFSD 160531Z 1606/1706 21005KT P6SM BKN200
     FM160700 VRB03KT P6SM SCT200
     FM161500 33004KT P6SM BKN250
     FM170100 03006KT P6SM BKN080=

USA.gov is the U.S. government's official web portal to all federal, state and local government web resources and services.